Time;durP1;ratioP1;P1;durP2;ratioP2;P2;SDS_P1;SDS_P2;PMS_P1;PMS_P2;Temp;Humidity;BMP_temperature;BMP_pressure;BME280_temperature;BME280_humidity;BME280_pressure;Samples;Min_cycle;Max_cycle;Signal;HPM_P1;HPM_P2
2024/04/20 00:07:16;;;;;;;47.50;22.50;;;;;;;7.89;88.57;99044.20;676850;1261;140379;-79
2024/04/20 00:22:19;;;;;;;26.20;16.30;;;;;;;7.95;88.74;99044.21;677875;1263;139994;-79
2024/04/20 00:37:22;;;;;;;21.70;14.60;;;;;;;7.97;88.08;99046.20;676393;1258;139347;-79
2024/04/20 00:52:25;;;;;;;25.40;15.60;;;;;;;8.00;88.34;99053.58;674836;1264;142371;-79
2024/04/20 01:07:28;;;;;;;30.50;17.40;;;;;;;7.98;88.84;99058.02;675773;1263;139976;-79
2024/04/20 01:22:31;;;;;;;27.20;16.10;;;;;;;7.99;89.19;99060.28;675265;1259;140123;-79
2024/04/20 01:37:35;;;;;;;29.70;18.40;;;;;;;8.09;89.67;99063.39;675694;1262;139810;-79
2024/04/20 01:52:38;;;;;;;26.80;17.30;;;;;;;8.16;89.88;99066.73;676266;1263;139860;-79
2024/04/20 02:07:41;;;;;;;33.40;19.50;;;;;;;8.20;89.82;99076.31;673992;1264;139584;-79
2024/04/20 02:22:44;;;;;;;31.40;19.00;;;;;;;8.24;89.73;99083.46;673963;1264;139081;-79
2024/04/20 02:37:48;;;;;;;27.20;18.50;;;;;;;8.26;89.48;99086.95;672623;1259;139381;-79
2024/04/20 02:52:53;;;;;;;25.40;17.70;;;;;;;8.25;89.64;99092.66;673360;1263;139832;-79
2024/04/20 03:07:57;;;;;;;28.70;16.60;;;;;;;8.24;89.60;99106.52;676037;1264;140363;-79
2024/04/20 03:23:01;;;;;;;30.20;17.90;;;;;;;8.23;89.42;99117.59;677415;1262;195872;-79
2024/04/20 03:38:04;;;;;;;27.30;17.00;;;;;;;8.22;89.84;99121.72;675877;1263;138631;-79
2024/04/20 03:53:09;;;;;;;27.10;17.90;;;;;;;8.18;90.00;99132.70;675294;1262;140081;-79
2024/04/20 04:08:12;;;;;;;27.20;16.80;;;;;;;8.19;90.06;99148.99;676150;1261;139153;-79
2024/04/20 04:23:15;;;;;;;23.40;15.10;;;;;;;8.20;90.24;99167.66;675055;1264;139215;-80
2024/04/20 04:38:19;;;;;;;45.30;23.20;;;;;;;8.32;90.44;99185.36;671385;1264;139626;-79
2024/04/20 04:53:22;;;;;;;31.00;19.40;;;;;;;8.42;90.71;99206.67;676729;1264;140006;-79
2024/04/20 05:08:26;;;;;;;24.90;17.50;;;;;;;8.47;90.53;99223.29;672625;1263;140812;-79
2024/04/20 05:23:29;;;;;;;25.60;15.60;;;;;;;8.51;90.31;99245.98;676552;1264;140801;-80
2024/04/20 05:38:32;;;;;;;28.10;16.30;;;;;;;8.44;89.81;99271.83;673502;1263;139227;-80
2024/04/20 05:53:35;;;;;;;36.30;17.10;;;;;;;8.23;89.90;99294.54;677075;1275;140305;-80
2024/04/20 06:08:40;;;;;;;21.00;13.00;;;;;;;8.28;89.72;99311.27;677297;1264;140602;-79
2024/04/20 06:23:45;;;;;;;26.20;12.70;;;;;;;8.29;89.87;99338.88;677472;1262;139393;-79
2024/04/20 06:38:51;;;;;;;12.70;7.70;;;;;;;8.33;90.07;99362.94;675748;1262;140136;-79
2024/04/20 06:53:55;;;;;;;13.50;7.60;;;;;;;8.33;89.56;99387.83;675700;1263;139300;-79
2024/04/20 07:09:00;;;;;;;10.90;6.40;;;;;;;8.42;89.14;99418.37;674521;1263;140323;-80
2024/04/20 07:24:03;;;;;;;9.50;6.20;;;;;;;8.22;88.74;99446.19;677065;1260;139039;-79
2024/04/20 07:39:06;;;;;;;8.60;5.70;;;;;;;7.99;88.25;99472.15;676812;1265;140482;-79
2024/04/20 07:54:09;;;;;;;10.30;6.00;;;;;;;7.99;88.44;99496.62;676570;1270;144446;-79
2024/04/20 08:09:22;;;;;;;14.60;9.00;;;;;;;8.04;88.02;99526.34;669123;1276;139105;-79
2024/04/20 08:24:26;;;;;;;20.90;11.50;;;;;;;8.07;88.09;99546.99;669603;1265;140170;-79
2024/04/20 08:39:29;;;;;;;12.60;9.40;;;;;;;8.24;88.05;99570.69;668524;1264;139317;-80
2024/04/20 08:54:34;;;;;;;13.10;8.20;;;;;;;8.16;87.87;99598.56;671839;1259;139411;-79
2024/04/20 09:09:39;;;;;;;15.10;7.20;;;;;;;8.28;87.90;99632.71;676124;1260;139099;-80
2024/04/20 09:24:42;;;;;;;28.10;14.10;;;;;;;8.21;87.37;99663.70;674239;1265;139171;-80
2024/04/20 09:39:45;;;;;;;31.80;19.20;;;;;;;8.15;87.65;99686.27;672725;1265;140292;-78
2024/04/20 09:54:54;;;;;;;35.00;19.40;;;;;;;8.01;87.75;99717.94;676274;1266;139621;-79
2024/04/20 10:10:00;;;;;;;22.80;14.20;;;;;;;7.68;87.36;99743.59;673637;1265;139961;-78
2024/04/20 10:25:10;;;;;;;36.70;18.40;;;;;;;7.53;87.00;99764.30;673295;1263;139255;-78
2024/04/20 10:40:14;;;;;;;48.90;27.80;;;;;;;7.71;87.27;99795.21;665674;1261;139358;-80
2024/04/20 10:55:17;;;;;;;16.90;11.60;;;;;;;7.79;87.42;99821.02;667482;1263;139193;-80
2024/04/20 11:10:20;;;;;;;19.10;12.80;;;;;;;7.85;87.00;99852.02;664261;1264;139513;-80
2024/04/20 11:25:24;;;;;;;18.00;10.90;;;;;;;7.51;86.30;99898.01;665094;1265;139494;-79
2024/04/20 11:40:27;;;;;;;54.70;33.50;;;;;;;7.47;86.78;99929.05;664986;1276;139121;-78
2024/04/20 11:55:30;;;;;;;33.70;17.30;;;;;;;7.60;86.97;99954.52;664923;1264;139952;-79
2024/04/20 12:10:35;;;;;;;52.00;23.50;;;;;;;7.59;87.15;99977.70;664841;1264;139278;-79
2024/04/20 12:25:47;;;;;;;29.30;14.20;;;;;;;7.49;86.59;100002.02;665091;1270;139901;-77
2024/04/20 12:40:54;;;;;;;34.50;15.70;;;;;;;7.74;86.67;100023.02;670381;1278;140137;-77
2024/04/20 12:55:57;;;;;;;41.90;17.00;;;;;;;7.85;85.98;100047.03;678244;1266;140334;-78
2024/04/20 13:11:00;;;;;;;19.50;9.70;;;;;;;7.87;85.93;100065.84;670386;1264;139497;-79
2024/04/20 13:26:04;;;;;;;48.90;33.00;;;;;;;7.96;85.07;100095.09;672028;1264;141091;-79
2024/04/20 13:41:25;;;;;;;14.30;7.80;;;;;;;7.62;84.92;100112.92;672592;1264;140430;-78
2024/04/20 13:56:29;;;;;;;28.00;10.90;;;;;;;7.48;84.61;100139.86;674791;1263;139516;-78
2024/04/20 14:11:32;;;;;;;14.90;9.30;;;;;;;7.33;83.98;100156.68;673290;1259;140005;-78
2024/04/20 14:26:35;;;;;;;23.00;10.30;;;;;;;7.21;83.54;100174.70;669934;1264;139016;-79
2024/04/20 14:41:38;;;;;;;33.10;11.90;;;;;;;7.42;82.53;100198.45;666406;1282;139569;-78
2024/04/20 14:56:42;;;;;;;43.80;15.70;;;;;;;7.32;82.17;100208.82;667823;1273;139546;-80
2024/04/20 15:11:45;;;;;;;63.70;22.40;;;;;;;7.42;82.05;100217.63;667426;1264;139174;-79
2024/04/20 15:26:51;;;;;;;180.00;26.60;;;;;;;7.89;81.56;100224.64;667277;1260;199001;-81
2024/04/20 15:41:54;;;;;;;60.80;18.90;;;;;;;7.77;77.27;100253.43;667483;1260;139779;-79
2024/04/20 15:56:57;;;;;;;32.80;18.30;;;;;;;7.29;74.62;100274.96;665683;1262;139260;-79
2024/04/20 16:12:01;;;;;;;51.20;20.40;;;;;;;7.29;73.86;100293.23;666945;1258;139372;-79
2024/04/20 16:27:05;;;;;;;113.60;33.80;;;;;;;7.38;72.97;100303.88;667987;1260;140669;-80
2024/04/20 16:42:08;;;;;;;94.50;29.40;;;;;;;7.60;71.76;100325.04;668376;1275;139292;-79
2024/04/20 17:04:32;;;;;;;49.70;25.30;;;;;;;7.35;70.01;100344.96;651722;1304;545054;-81
2024/04/20 17:19:36;;;;;;;47.30;21.10;;;;;;;7.22;70.33;100359.86;663131;1275;139548;-80
2024/04/20 17:34:39;;;;;;;20.60;12.70;;;;;;;7.14;69.98;100381.30;665302;1269;138398;-80
2024/04/20 17:49:42;;;;;;;48.30;20.50;;;;;;;6.91;70.13;100408.11;663553;1275;139564;-81
2024/04/20 18:04:52;;;;;;;43.00;20.80;;;;;;;6.73;70.46;100430.42;666997;1272;138824;-81
2024/04/20 18:19:55;;;;;;;49.40;17.50;;;;;;;6.58;70.29;100465.02;666360;1275;138516;-79
2024/04/20 18:35:01;;;;;;;46.20;16.40;;;;;;;6.41;70.28;100486.45;668892;1274;138250;-80
2024/04/20 18:50:06;;;;;;;31.30;14.90;;;;;;;6.26;70.46;100503.05;669947;1275;139005;-82
2024/04/20 19:05:11;;;;;;;62.80;21.00;;;;;;;5.94;70.43;100515.76;669549;1275;139151;-80
2024/04/20 19:20:18;;;;;;;113.20;37.10;;;;;;;5.55;70.50;100525.52;666918;1276;138530;-80
2024/04/20 19:35:21;;;;;;;145.90;45.00;;;;;;;5.26;71.81;100536.48;666219;1275;138853;-81
2024/04/20 19:50:24;;;;;;;110.80;39.50;;;;;;;5.14;71.73;100534.95;665577;1275;139584;-81
2024/04/20 20:05:27;;;;;;;197.60;54.70;;;;;;;4.76;71.75;100561.33;669312;1275;141139;-82
2024/04/20 20:20:30;;;;;;;109.90;35.40;;;;;;;4.49;71.76;100571.41;664019;1275;139101;-80
2024/04/20 20:35:34;;;;;;;120.50;36.00;;;;;;;4.16;72.08;100590.39;665880;1262;138992;-81
2024/04/20 20:50:38;;;;;;;114.20;35.10;;;;;;;3.90;72.45;100605.67;668122;1263;140364;-80
2024/04/20 21:05:51;;;;;;;55.90;19.50;;;;;;;3.67;72.04;100625.27;668587;1262;140509;-80
2024/04/20 21:21:13;;;;;;;182.60;45.10;;;;;;;3.31;72.51;100634.77;667493;1266;139011;-81
2024/04/20 21:36:19;;;;;;;106.30;33.10;;;;;;;3.08;72.91;100642.35;670638;1261;138986;-80
2024/04/20 21:51:22;;;;;;;121.40;32.40;;;;;;;2.80;72.88;100660.48;669017;1266;139137;-81
2024/04/20 22:06:25;;;;;;;75.50;25.90;;;;;;;2.59;73.33;100675.33;665098;1276;139796;-80
2024/04/20 22:21:28;;;;;;;58.10;23.40;;;;;;;2.30;73.58;100696.20;666321;1263;140363;-80
2024/04/20 22:36:32;;;;;;;66.60;25.20;;;;;;;2.18;73.75;100700.59;666516;1264;139402;-80
2024/04/20 22:51:34;;;;;;;130.00;47.00;;;;;;;2.07;74.52;100701.57;666540;1281;138880;-80
2024/04/20 23:06:38;;;;;;;95.20;32.80;;;;;;;1.98;74.56;100699.39;667626;1273;140093;-81
2024/04/20 23:21:41;;;;;;;120.30;35.30;;;;;;;1.86;75.10;100702.18;666675;1259;139593;-79
2024/04/20 23:36:44;;;;;;;71.40;27.30;;;;;;;1.86;75.94;100703.59;666967;1267;139075;-80
2024/04/20 23:51:47;;;;;;;93.20;28.50;;;;;;;1.98;76.34;100698.21;668208;1264;139439;-80
